Southern Tiare — E5U2082 — position and weather

sailwx.info

Track history (hours):
 
Tides and Currents Weather Stations Pressure Air Temp Water Temp Dewpoint Dewpoint Depression Visibility Wind Speed Wind Dir Waves Ship Positions

Southern Tiare

Last reported at 2014-Oct-06 02:33 UTC. Time now 2014-Oct-26 06:59 UTC.
Position S 36°20' E 174°57'.
Warning: this ship's position is 20 days out of date.

Length 67 m; draft 3.3 m.

Type: Cargo ship. MMSI: 518132000.

Date/timePositionNaut miles runAvg speedWind from/ knotsBaromVisibWave heightAir tempDewpointWater temp
2014-Oct-06 02:33S 36°20' E 174°57'1010.0
2014-Oct-06 01:33S 36°30' E 174°57'10 9.7
2014-Oct-06 00:33S 36°40' E 174°55'9 9.3
2014-Oct-05 23:33S 36°48' E 174°49'3 2.8
2014-Oct-05 22:26S 36°50' E 174°47'0 0.0
2014-Oct-05 21:32S 36°50' E 174°47'0 0.0
2014-Oct-05 20:32S 36°50' E 174°47'0 0.0
2014-Oct-05 19:32S 36°50' E 174°47'0 0.0
2014-Oct-05 18:32S 36°50' E 174°47'0 0.0
2014-Oct-05 17:32S 36°50' E 174°47'0 0.0
2014-Oct-05 16:32S 36°50' E 174°47'0 0.0
2014-Oct-05 15:32S 36°50' E 174°47'0 0.0
2014-Oct-05 14:32S 36°50' E 174°47'0 0.0
2014-Oct-05 13:32S 36°50' E 174°47'0 0.0
2014-Oct-05 12:32S 36°50' E 174°47'0 0.0
2014-Oct-05 11:32S 36°50' E 174°47'0 0.0
2014-Oct-05 10:32S 36°50' E 174°47'0 0.0
2014-Oct-05 09:32S 36°50' E 174°47'0 0.0
2014-Oct-05 08:32S 36°50' E 174°47'0 0.0
2014-Oct-05 07:32S 36°50' E 174°47'0 0.0
2014-Oct-05 06:32S 36°50' E 174°47'0 0.1
2014-Oct-05 05:32S 36°51' E 174°47'0 0.0
2014-Oct-05 04:32S 36°51' E 174°47'0 0.0
2014-Oct-05 03:32S 36°51' E 174°47'0 0.0
2014-Oct-05 02:20S 36°51' E 174°47'0 0.0
2014-Oct-05 01:31S 36°51' E 174°47'0 0.0
2014-Oct-05 00:31S 36°51' E 174°47'0 0.0
2014-Oct-04 23:31S 36°51' E 174°47'0 0.0
2014-Oct-04 22:31S 36°51' E 174°47'0 0.0
2014-Oct-04 20:32S 36°51' E 174°47'0 0.0
2014-Oct-04 19:32S 36°51' E 174°47'0 0.0
2014-Oct-04 18:32S 36°51' E 174°47'0 0.0
2014-Oct-04 17:32S 36°51' E 174°47'0 0.0
2014-Oct-04 16:14S 36°51' E 174°47'0 0.0
2014-Oct-04 15:32S 36°51' E 174°47'0 0.0
2014-Oct-04 14:29S 36°51' E 174°47'0 0.0
2014-Oct-04 13:32S 36°51' E 174°47'0 0.0
2014-Oct-04 12:32S 36°51' E 174°47'0 0.0
2014-Oct-04 11:32S 36°51' E 174°47'0 0.0
2014-Oct-04 10:31S 36°51' E 174°47'0 0.0
2014-Oct-04 09:07S 36°51' E 174°47'0 0.0
2014-Oct-04 08:26S 36°51' E 174°47'0 0.0
2014-Oct-04 07:32S 36°51' E 174°47'0 0.0
2014-Oct-04 06:31S 36°51' E 174°47'0 0.0
2014-Oct-04 05:26S 36°51' E 174°47'0 0.0
2014-Oct-04 04:19S 36°51' E 174°47'0 0.0
2014-Oct-04 03:32S 36°51' E 174°47'0 0.0
2014-Oct-04 02:32S 36°51' E 174°47'0 0.0
2014-Oct-04 01:19S 36°51' E 174°47'0 0.0
2014-Oct-04 00:26S 36°51' E 174°47'0 0.0
2014-Oct-03 23:20S 36°51' E 174°47'0 0.0
2014-Oct-03 22:32S 36°51' E 174°47'0 0.0
2014-Oct-03 20:20S 36°51' E 174°47'0 0.0
2014-Oct-03 19:29S 36°51' E 174°47'0 0.0
2014-Oct-03 18:32S 36°51' E 174°47'0 0.0
2014-Oct-03 17:08S 36°51' E 174°47'0 0.0
2014-Oct-03 16:32S 36°51' E 174°47'0 0.0
2014-Oct-03 15:31S 36°51' E 174°47'0 0.0
2014-Oct-03 14:13S 36°51' E 174°47'0 0.0
2014-Oct-03 13:31S 36°51' E 174°47'0 0.0
2014-Oct-03 12:25S 36°51' E 174°47'0 0.0
2014-Oct-03 03:31S 36°51' E 174°47'0 0.0
2014-Oct-03 02:25S 36°51' E 174°47'0 0.1
2014-Oct-03 01:32S 36°50' E 174°47'0 0.0
2014-Oct-03 00:32S 36°50' E 174°47'0 0.0
2014-Oct-02 23:29S 36°50' E 174°47'0 0.0
2014-Oct-02 22:32S 36°50' E 174°47'0 0.0
2014-Oct-02 21:32S 36°50' E 174°47'0 0.0
2014-Oct-02 20:32S 36°50' E 174°47'0 0.0
2014-Oct-02 19:32S 36°50' E 174°47'0 0.0
2014-Oct-02 18:32S 36°50' E 174°47'0 0.0
2014-Oct-02 17:32S 36°50' E 174°47'0 0.0
2014-Oct-02 16:32S 36°50' E 174°47'0 0.0
2014-Oct-02 15:32S 36°50' E 174°47'0 0.0
2014-Oct-02 14:32S 36°50' E 174°47'0 0.0
2014-Oct-02 13:32S 36°50' E 174°47'0 0.2
2014-Oct-02 12:33S 36°50' E 174°47'0 0.0
2014-Oct-02 11:33S 36°50' E 174°47'0 0.0
2014-Oct-02 10:33S 36°50' E 174°47'0 0.0
2014-Oct-02 09:34S 36°50' E 174°47'0 0.0
2014-Oct-02 08:33S 36°50' E 174°47'0 0.0
2014-Oct-02 07:33S 36°50' E 174°47'0 0.0
2014-Oct-02 06:33S 36°50' E 174°47'0 0.0
2014-Oct-02 05:34S 36°50' E 174°47'0 0.0
2014-Oct-02 04:31S 36°50' E 174°47'0 0.0
2014-Oct-02 03:31S 36°50' E 174°47'0 0.0
2014-Oct-02 02:33S 36°50' E 174°47'0 0.0
2014-Oct-02 01:31S 36°50' E 174°47'0 0.0
2014-Oct-02 00:33S 36°50' E 174°47'0 0.0
2014-Oct-01 23:30S 36°50' E 174°47'0 0.0
2014-Oct-01 22:33S 36°50' E 174°47'0 0.0
2014-Oct-01 21:33S 36°50' E 174°47'0 0.0
2014-Oct-01 20:27S 36°50' E 174°47'0 0.0
2014-Oct-01 19:33S 36°50' E 174°47'0 0.0
2014-Oct-01 18:33S 36°50' E 174°47'0 0.0
2014-Oct-01 17:33S 36°50' E 174°47'0 0.0
2014-Oct-01 16:33S 36°50' E 174°47'0 0.0
2014-Oct-01 15:30S 36°50' E 174°47'0 0.0
2014-Oct-01 14:30S 36°50' E 174°47'0 0.0
2014-Oct-01 13:33S 36°50' E 174°47'0 0.0
2014-Oct-01 12:30S 36°50' E 174°47'0 0.0
2014-Oct-01 11:33S 36°50' E 174°47'0 0.0
2014-Oct-01 10:33S 36°50' E 174°47'0 0.0
2014-Oct-01 09:33S 36°50' E 174°47'0 0.0
2014-Oct-01 08:33S 36°50' E 174°47'0 0.0
2014-Oct-01 07:33S 36°50' E 174°47'0 0.0
2014-Oct-01 06:30S 36°50' E 174°47'0 0.0
2014-Oct-01 05:33S 36°50' E 174°47'0 0.0
2014-Oct-01 04:33S 36°50' E 174°47'0 0.0
2014-Oct-01 03:33S 36°50' E 174°47'0 0.0
2014-Oct-01 02:30S 36°50' E 174°47'0 0.0
2014-Oct-01 01:31S 36°50' E 174°47'0 0.0
2014-Oct-01 00:31S 36°50' E 174°47'0 0.0
2014-Sep-30 23:31S 36°50' E 174°47'0 0.0
2014-Sep-30 22:33S 36°50' E 174°47'0 0.0
2014-Sep-30 21:27S 36°50' E 174°47'0 0.0
2014-Sep-30 20:33S 36°50' E 174°47'0 0.0
2014-Sep-30 19:33S 36°50' E 174°47'0 0.0
2014-Sep-30 18:33S 36°50' E 174°47'0 0.0
2014-Sep-30 17:33S 36°50' E 174°47'0 0.0
2014-Sep-30 16:31S 36°50' E 174°47'0 0.0
2014-Sep-30 15:33S 36°50' E 174°47'0 0.0
2014-Sep-30 14:33S 36°50' E 174°47'0 0.0
2014-Sep-30 13:34S 36°50' E 174°47'0 0.0
2014-Sep-30 12:24S 36°50' E 174°47'0 0.0
2014-Sep-30 11:28S 36°50' E 174°47'0 0.0
2014-Sep-30 10:30S 36°50' E 174°47'0 0.0
2014-Sep-30 09:27S 36°50' E 174°47'0 0.0
2014-Sep-30 08:33S 36°50' E 174°47'0 0.0
2014-Sep-30 07:30S 36°50' E 174°47'0 0.0
2014-Sep-30 06:33S 36°50' E 174°47'0 0.0
2014-Sep-30 05:33S 36°50' E 174°47'0 0.0
2014-Sep-30 04:33S 36°50' E 174°47'0 0.0
2014-Sep-30 03:33S 36°50' E 174°47'0 0.0
2014-Sep-30 02:30S 36°50' E 174°47'0 0.0
2014-Sep-30 01:33S 36°50' E 174°47'0 0.0
2014-Sep-30 00:30S 36°50' E 174°47'0 0.0
2014-Sep-29 23:30S 36°50' E 174°47'0 0.0
2014-Sep-29 22:27S 36°50' E 174°47'0 0.0
2014-Sep-29 21:33S 36°50' E 174°47'0 0.0
2014-Sep-29 20:33S 36°50' E 174°47'0 0.0
2014-Sep-29 19:33S 36°50' E 174°47'0 0.0
2014-Sep-29 18:33S 36°50' E 174°47'0 0.0
2014-Sep-29 17:33S 36°50' E 174°47'0 0.0
2014-Sep-29 16:34S 36°50' E 174°47'0 0.0
2014-Sep-29 15:34S 36°50' E 174°47'0 0.0
2014-Sep-29 14:33S 36°50' E 174°47'0 0.0
2014-Sep-29 13:33S 36°50' E 174°47'0 0.0
2014-Sep-29 12:33S 36°50' E 174°47'0 0.0
2014-Sep-29 11:33S 36°50' E 174°47'0 0.0
2014-Sep-29 10:30S 36°50' E 174°47'0 0.0
2014-Sep-29 09:33S 36°50' E 174°47'0 0.0
2014-Sep-29 08:33S 36°50' E 174°47'0 0.0
2014-Sep-29 07:33S 36°50' E 174°47'0 0.0
2014-Sep-29 06:33S 36°50' E 174°47'0 0.0
2014-Sep-29 05:33S 36°50' E 174°47'0 0.0
2014-Sep-29 04:33S 36°50' E 174°47'0 0.0
2014-Sep-29 03:33S 36°50' E 174°47'0 0.0
2014-Sep-29 02:33S 36°50' E 174°47'0 0.0
2014-Sep-29 01:33S 36°50' E 174°47'0 0.0
2014-Sep-29 00:33S 36°50' E 174°47'0 0.0
2014-Sep-28 23:33S 36°50' E 174°47'0 0.0
2014-Sep-28 22:33S 36°50' E 174°47'0 0.0
2014-Sep-28 21:33S 36°50' E 174°47'0 0.0
2014-Sep-28 20:33S 36°50' E 174°47'0 0.0
2014-Sep-28 19:33S 36°50' E 174°47'0 0.0
2014-Sep-28 18:33S 36°50' E 174°47'0 0.0
2014-Sep-28 17:33S 36°50' E 174°47'0 0.0
2014-Sep-28 16:33S 36°50' E 174°47'0 0.0
2014-Sep-28 15:33S 36°50' E 174°47'0 0.0
2014-Sep-28 14:33S 36°50' E 174°47'0 0.0
2014-Sep-28 13:33S 36°50' E 174°47'0 0.0
2014-Sep-28 12:33S 36°50' E 174°47'0 0.0
2014-Sep-28 11:33S 36°50' E 174°47'0 0.0
2014-Sep-28 10:33S 36°50' E 174°47'0 0.0
2014-Sep-28 09:33S 36°50' E 174°47'0 0.0
2014-Sep-28 08:33S 36°50' E 174°47'0 0.0
2014-Sep-28 07:33S 36°50' E 174°47'0 0.0
2014-Sep-28 06:33S 36°50' E 174°47'0 0.0
2014-Sep-28 05:33S 36°50' E 174°47'0 0.0
2014-Sep-28 04:33S 36°50' E 174°47'0 0.0
2014-Sep-28 03:33S 36°50' E 174°47'0 0.0
2014-Sep-28 02:30S 36°50' E 174°47'0 0.0
2014-Sep-28 01:33S 36°50' E 174°47'0 0.0
2014-Sep-28 00:33S 36°50' E 174°47'0 0.0
2014-Sep-27 23:33S 36°50' E 174°47'0 0.0
2014-Sep-27 22:33S 36°50' E 174°47'0 0.0
2014-Sep-27 21:33S 36°50' E 174°47'0 0.0
2014-Sep-27 20:33S 36°50' E 174°47'0 0.0
2014-Sep-27 19:33S 36°50' E 174°47'0 0.0
2014-Sep-27 18:33S 36°50' E 174°47'0 0.0
2014-Sep-27 17:33S 36°50' E 174°47'0 0.0
2014-Sep-27 16:33S 36°50' E 174°47'0 0.0
2014-Sep-27 15:33S 36°50' E 174°47'0 0.0
2014-Sep-27 14:33S 36°50' E 174°47'0 0.0
2014-Sep-27 13:33S 36°50' E 174°47'0 0.0
2014-Sep-27 12:30S 36°50' E 174°47'0 0.0
2014-Sep-27 11:33S 36°50' E 174°47'0 0.0
2014-Sep-27 10:33S 36°50' E 174°47'0 0.0
2014-Sep-27 09:33S 36°50' E 174°47'0 0.0
2014-Sep-27 08:33S 36°50' E 174°47'0 0.0
2014-Sep-27 07:33S 36°50' E 174°47'0 0.0
2014-Sep-27 06:30S 36°50' E 174°47'0 0.0
2014-Sep-27 05:33S 36°50' E 174°47'0 0.0
2014-Sep-27 04:29S 36°50' E 174°47'0 0.0
2014-Sep-27 03:33S 36°50' E 174°47'0 0.0
2014-Sep-27 02:33S 36°50' E 174°47'0 0.0
2014-Sep-27 01:33S 36°50' E 174°47'0 0.0
2014-Sep-27 00:33S 36°50' E 174°47'0 0.0
2014-Sep-26 23:33S 36°50' E 174°47'0 0.0
2014-Sep-26 22:33S 36°50' E 174°47'0 0.0
2014-Sep-26 21:30S 36°50' E 174°47'0 0.0
2014-Sep-26 20:30S 36°50' E 174°47'0 0.2
2014-Sep-26 19:33S 36°50' E 174°47'0 0.0
2014-Sep-26 18:33S 36°50' E 174°47'0 0.0
2014-Sep-26 17:33S 36°50' E 174°47'0 0.0
2014-Sep-26 16:33S 36°50' E 174°47'0 0.0
2014-Sep-26 15:33S 36°50' E 174°47'0 0.0
2014-Sep-26 14:33S 36°50' E 174°47'0 0.0
2014-Sep-26 13:33S 36°50' E 174°47'0 0.0
2014-Sep-26 12:33S 36°50' E 174°47'0 0.0
2014-Sep-26 11:33S 36°50' E 174°47'0 0.0
2014-Sep-26 10:32S 36°50' E 174°47'0 0.0
2014-Sep-26 09:33S 36°50' E 174°47'0 0.0
2014-Sep-26 08:33S 36°50' E 174°47'0 0.0
2014-Sep-26 07:33S 36°50' E 174°47'0 0.0
2014-Sep-26 06:33S 36°50' E 174°47'0 0.0
2014-Sep-26 05:33S 36°50' E 174°47'0 0.0
2014-Sep-26 04:33S 36°50' E 174°47'0 0.0
2014-Sep-26 03:33S 36°50' E 174°47'  
Track history (hours):
 
Tides and Currents Weather Stations Pressure Air Temp Water Temp Dewpoint Dewpoint Depression Visibility Wind Speed Wind Dir Waves Ship Positions

Southern Tiare

Last reported at 2014-Oct-06 02:33 UTC. Time now 2014-Oct-26 06:59 UTC.
Position S 36°20' E 174°57'.
Warning: this ship's position is 20 days out of date.

Length 67 m; draft 3.3 m.

Type: Cargo ship. MMSI: 518132000.

Date/timePositionNaut miles runAvg speedWind from/ knotsBaromVisibWave heightAir tempDewpointWater temp
2014-Oct-06 02:33S 36°20' E 174°57'1010.0
2014-Oct-06 01:33S 36°30' E 174°57'10 9.7
2014-Oct-06 00:33S 36°40' E 174°55'9 9.3
2014-Oct-05 23:33S 36°48' E 174°49'3 2.8
2014-Oct-05 22:26S 36°50' E 174°47'0 0.0
2014-Oct-05 21:32S 36°50' E 174°47'0 0.0
2014-Oct-05 20:32S 36°50' E 174°47'0 0.0
2014-Oct-05 19:32S 36°50' E 174°47'0 0.0
2014-Oct-05 18:32S 36°50' E 174°47'0 0.0
2014-Oct-05 17:32S 36°50' E 174°47'0 0.0
2014-Oct-05 16:32S 36°50' E 174°47'0 0.0
2014-Oct-05 15:32S 36°50' E 174°47'0 0.0
2014-Oct-05 14:32S 36°50' E 174°47'0 0.0
2014-Oct-05 13:32S 36°50' E 174°47'0 0.0
2014-Oct-05 12:32S 36°50' E 174°47'0 0.0
2014-Oct-05 11:32S 36°50' E 174°47'0 0.0
2014-Oct-05 10:32S 36°50' E 174°47'0 0.0
2014-Oct-05 09:32S 36°50' E 174°47'0 0.0
2014-Oct-05 08:32S 36°50' E 174°47'0 0.0
2014-Oct-05 07:32S 36°50' E 174°47'0 0.0
2014-Oct-05 06:32S 36°50' E 174°47'0 0.1
2014-Oct-05 05:32S 36°51' E 174°47'0 0.0
2014-Oct-05 04:32S 36°51' E 174°47'0 0.0
2014-Oct-05 03:32S 36°51' E 174°47'0 0.0
2014-Oct-05 02:20S 36°51' E 174°47'0 0.0
2014-Oct-05 01:31S 36°51' E 174°47'0 0.0
2014-Oct-05 00:31S 36°51' E 174°47'0 0.0
2014-Oct-04 23:31S 36°51' E 174°47'0 0.0
2014-Oct-04 22:31S 36°51' E 174°47'0 0.0
2014-Oct-04 20:32S 36°51' E 174°47'0 0.0
2014-Oct-04 19:32S 36°51' E 174°47'0 0.0
2014-Oct-04 18:32S 36°51' E 174°47'0 0.0
2014-Oct-04 17:32S 36°51' E 174°47'0 0.0
2014-Oct-04 16:14S 36°51' E 174°47'0 0.0
2014-Oct-04 15:32S 36°51' E 174°47'0 0.0
2014-Oct-04 14:29S 36°51' E 174°47'0 0.0
2014-Oct-04 13:32S 36°51' E 174°47'0 0.0
2014-Oct-04 12:32S 36°51' E 174°47'0 0.0
2014-Oct-04 11:32S 36°51' E 174°47'0 0.0
2014-Oct-04 10:31S 36°51' E 174°47'0 0.0
2014-Oct-04 09:07S 36°51' E 174°47'0 0.0
2014-Oct-04 08:26S 36°51' E 174°47'0 0.0
2014-Oct-04 07:32S 36°51' E 174°47'0 0.0
2014-Oct-04 06:31S 36°51' E 174°47'0 0.0
2014-Oct-04 05:26S 36°51' E 174°47'0 0.0
2014-Oct-04 04:19S 36°51' E 174°47'0 0.0
2014-Oct-04 03:32S 36°51' E 174°47'0 0.0
2014-Oct-04 02:32S 36°51' E 174°47'0 0.0
2014-Oct-04 01:19S 36°51' E 174°47'0 0.0
2014-Oct-04 00:26S 36°51' E 174°47'0 0.0
2014-Oct-03 23:20S 36°51' E 174°47'0 0.0
2014-Oct-03 22:32S 36°51' E 174°47'0 0.0
2014-Oct-03 20:20S 36°51' E 174°47'0 0.0
2014-Oct-03 19:29S 36°51' E 174°47'0 0.0
2014-Oct-03 18:32S 36°51' E 174°47'0 0.0
2014-Oct-03 17:08S 36°51' E 174°47'0 0.0
2014-Oct-03 16:32S 36°51' E 174°47'0 0.0
2014-Oct-03 15:31S 36°51' E 174°47'0 0.0
2014-Oct-03 14:13S 36°51' E 174°47'0 0.0
2014-Oct-03 13:31S 36°51' E 174°47'0 0.0
2014-Oct-03 12:25S 36°51' E 174°47'0 0.0
2014-Oct-03 03:31S 36°51' E 174°47'0 0.0
2014-Oct-03 02:25S 36°51' E 174°47'0 0.1
2014-Oct-03 01:32S 36°50' E 174°47'0 0.0
2014-Oct-03 00:32S 36°50' E 174°47'0 0.0
2014-Oct-02 23:29S 36°50' E 174°47'0 0.0
2014-Oct-02 22:32S 36°50' E 174°47'0 0.0
2014-Oct-02 21:32S 36°50' E 174°47'0 0.0
2014-Oct-02 20:32S 36°50' E 174°47'0 0.0
2014-Oct-02 19:32S 36°50' E 174°47'0 0.0
2014-Oct-02 18:32S 36°50' E 174°47'0 0.0
2014-Oct-02 17:32S 36°50' E 174°47'0 0.0
2014-Oct-02 16:32S 36°50' E 174°47'0 0.0
2014-Oct-02 15:32S 36°50' E 174°47'0 0.0
2014-Oct-02 14:32S 36°50' E 174°47'0 0.0
2014-Oct-02 13:32S 36°50' E 174°47'0 0.2
2014-Oct-02 12:33S 36°50' E 174°47'0 0.0
2014-Oct-02 11:33S 36°50' E 174°47'0 0.0
2014-Oct-02 10:33S 36°50' E 174°47'0 0.0
2014-Oct-02 09:34S 36°50' E 174°47'0 0.0
2014-Oct-02 08:33S 36°50' E 174°47'0 0.0
2014-Oct-02 07:33S 36°50' E 174°47'0 0.0
2014-Oct-02 06:33S 36°50' E 174°47'0 0.0
2014-Oct-02 05:34S 36°50' E 174°47'0 0.0
2014-Oct-02 04:31S 36°50' E 174°47'0 0.0
2014-Oct-02 03:31S 36°50' E 174°47'0 0.0
2014-Oct-02 02:33S 36°50' E 174°47'0 0.0
2014-Oct-02 01:31S 36°50' E 174°47'0 0.0
2014-Oct-02 00:33S 36°50' E 174°47'0 0.0
2014-Oct-01 23:30S 36°50' E 174°47'0 0.0
2014-Oct-01 22:33S 36°50' E 174°47'0 0.0
2014-Oct-01 21:33S 36°50' E 174°47'0 0.0
2014-Oct-01 20:27S 36°50' E 174°47'0 0.0
2014-Oct-01 19:33S 36°50' E 174°47'0 0.0
2014-Oct-01 18:33S 36°50' E 174°47'0 0.0
2014-Oct-01 17:33S 36°50' E 174°47'0 0.0
2014-Oct-01 16:33S 36°50' E 174°47'0 0.0
2014-Oct-01 15:30S 36°50' E 174°47'0 0.0
2014-Oct-01 14:30S 36°50' E 174°47'0 0.0
2014-Oct-01 13:33S 36°50' E 174°47'0 0.0
2014-Oct-01 12:30S 36°50' E 174°47'0 0.0
2014-Oct-01 11:33S 36°50' E 174°47'0 0.0
2014-Oct-01 10:33S 36°50' E 174°47'0 0.0
2014-Oct-01 09:33S 36°50' E 174°47'0 0.0
2014-Oct-01 08:33S 36°50' E 174°47'0 0.0
2014-Oct-01 07:33S 36°50' E 174°47'0 0.0
2014-Oct-01 06:30S 36°50' E 174°47'0 0.0
2014-Oct-01 05:33S 36°50' E 174°47'0 0.0
2014-Oct-01 04:33S 36°50' E 174°47'0 0.0
2014-Oct-01 03:33S 36°50' E 174°47'0 0.0
2014-Oct-01 02:30S 36°50' E 174°47'0 0.0
2014-Oct-01 01:31S 36°50' E 174°47'0 0.0
2014-Oct-01 00:31S 36°50' E 174°47'0 0.0
2014-Sep-30 23:31S 36°50' E 174°47'0 0.0
2014-Sep-30 22:33S 36°50' E 174°47'0 0.0
2014-Sep-30 21:27S 36°50' E 174°47'0 0.0
2014-Sep-30 20:33S 36°50' E 174°47'0 0.0
2014-Sep-30 19:33S 36°50' E 174°47'0 0.0
2014-Sep-30 18:33S 36°50' E 174°47'0 0.0
2014-Sep-30 17:33S 36°50' E 174°47'0 0.0
2014-Sep-30 16:31S 36°50' E 174°47'0 0.0
2014-Sep-30 15:33S 36°50' E 174°47'0 0.0
2014-Sep-30 14:33S 36°50' E 174°47'0 0.0
2014-Sep-30 13:34S 36°50' E 174°47'0 0.0
2014-Sep-30 12:24S 36°50' E 174°47'0 0.0
2014-Sep-30 11:28S 36°50' E 174°47'0 0.0
2014-Sep-30 10:30S 36°50' E 174°47'0 0.0
2014-Sep-30 09:27S 36°50' E 174°47'0 0.0
2014-Sep-30 08:33S 36°50' E 174°47'0 0.0
2014-Sep-30 07:30S 36°50' E 174°47'0 0.0
2014-Sep-30 06:33S 36°50' E 174°47'0 0.0
2014-Sep-30 05:33S 36°50' E 174°47'0 0.0
2014-Sep-30 04:33S 36°50' E 174°47'0 0.0
2014-Sep-30 03:33S 36°50' E 174°47'0 0.0
2014-Sep-30 02:30S 36°50' E 174°47'0 0.0
2014-Sep-30 01:33S 36°50' E 174°47'0 0.0
2014-Sep-30 00:30S 36°50' E 174°47'0 0.0
2014-Sep-29 23:30S 36°50' E 174°47'0 0.0
2014-Sep-29 22:27S 36°50' E 174°47'0 0.0
2014-Sep-29 21:33S 36°50' E 174°47'0 0.0
2014-Sep-29 20:33S 36°50' E 174°47'0 0.0
2014-Sep-29 19:33S 36°50' E 174°47'0 0.0
2014-Sep-29 18:33S 36°50' E 174°47'0 0.0
2014-Sep-29 17:33S 36°50' E 174°47'0 0.0
2014-Sep-29 16:34S 36°50' E 174°47'0 0.0
2014-Sep-29 15:34S 36°50' E 174°47'0 0.0
2014-Sep-29 14:33S 36°50' E 174°47'0 0.0
2014-Sep-29 13:33S 36°50' E 174°47'0 0.0
2014-Sep-29 12:33S 36°50' E 174°47'0 0.0
2014-Sep-29 11:33S 36°50' E 174°47'0 0.0
2014-Sep-29 10:30S 36°50' E 174°47'0 0.0
2014-Sep-29 09:33S 36°50' E 174°47'0 0.0
2014-Sep-29 08:33S 36°50' E 174°47'0 0.0
2014-Sep-29 07:33S 36°50' E 174°47'0 0.0
2014-Sep-29 06:33S 36°50' E 174°47'0 0.0
2014-Sep-29 05:33S 36°50' E 174°47'0 0.0
2014-Sep-29 04:33S 36°50' E 174°47'0 0.0
2014-Sep-29 03:33S 36°50' E 174°47'0 0.0
2014-Sep-29 02:33S 36°50' E 174°47'0 0.0
2014-Sep-29 01:33S 36°50' E 174°47'0 0.0
2014-Sep-29 00:33S 36°50' E 174°47'0 0.0
2014-Sep-28 23:33S 36°50' E 174°47'0 0.0
2014-Sep-28 22:33S 36°50' E 174°47'0 0.0
2014-Sep-28 21:33S 36°50' E 174°47'0 0.0
2014-Sep-28 20:33S 36°50' E 174°47'0 0.0
2014-Sep-28 19:33S 36°50' E 174°47'0 0.0
2014-Sep-28 18:33S 36°50' E 174°47'0 0.0
2014-Sep-28 17:33S 36°50' E 174°47'0 0.0
2014-Sep-28 16:33S 36°50' E 174°47'0 0.0
2014-Sep-28 15:33S 36°50' E 174°47'0 0.0
2014-Sep-28 14:33S 36°50' E 174°47'0 0.0
2014-Sep-28 13:33S 36°50' E 174°47'0 0.0
2014-Sep-28 12:33S 36°50' E 174°47'0 0.0
2014-Sep-28 11:33S 36°50' E 174°47'0 0.0
2014-Sep-28 10:33S 36°50' E 174°47'0 0.0
2014-Sep-28 09:33S 36°50' E 174°47'0 0.0
2014-Sep-28 08:33S 36°50' E 174°47'0 0.0
2014-Sep-28 07:33S 36°50' E 174°47'0 0.0
2014-Sep-28 06:33S 36°50' E 174°47'0 0.0
2014-Sep-28 05:33S 36°50' E 174°47'0 0.0
2014-Sep-28 04:33S 36°50' E 174°47'0 0.0
2014-Sep-28 03:33S 36°50' E 174°47'0 0.0
2014-Sep-28 02:30S 36°50' E 174°47'0 0.0
2014-Sep-28 01:33S 36°50' E 174°47'0 0.0
2014-Sep-28 00:33S 36°50' E 174°47'0 0.0
2014-Sep-27 23:33S 36°50' E 174°47'0 0.0
2014-Sep-27 22:33S 36°50' E 174°47'0 0.0
2014-Sep-27 21:33S 36°50' E 174°47'0 0.0
2014-Sep-27 20:33S 36°50' E 174°47'0 0.0
2014-Sep-27 19:33S 36°50' E 174°47'0 0.0
2014-Sep-27 18:33S 36°50' E 174°47'0 0.0
2014-Sep-27 17:33S 36°50' E 174°47'0 0.0
2014-Sep-27 16:33S 36°50' E 174°47'0 0.0
2014-Sep-27 15:33S 36°50' E 174°47'0 0.0
2014-Sep-27 14:33S 36°50' E 174°47'0 0.0
2014-Sep-27 13:33S 36°50' E 174°47'0 0.0
2014-Sep-27 12:30S 36°50' E 174°47'0 0.0
2014-Sep-27 11:33S 36°50' E 174°47'0 0.0
2014-Sep-27 10:33S 36°50' E 174°47'0 0.0
2014-Sep-27 09:33S 36°50' E 174°47'0 0.0
2014-Sep-27 08:33S 36°50' E 174°47'0 0.0
2014-Sep-27 07:33S 36°50' E 174°47'0 0.0
2014-Sep-27 06:30S 36°50' E 174°47'0 0.0
2014-Sep-27 05:33S 36°50' E 174°47'0 0.0
2014-Sep-27 04:29S 36°50' E 174°47'0 0.0
2014-Sep-27 03:33S 36°50' E 174°47'0 0.0
2014-Sep-27 02:33S 36°50' E 174°47'0 0.0
2014-Sep-27 01:33S 36°50' E 174°47'0 0.0
2014-Sep-27 00:33S 36°50' E 174°47'0 0.0
2014-Sep-26 23:33S 36°50' E 174°47'0 0.0
2014-Sep-26 22:33S 36°50' E 174°47'0 0.0
2014-Sep-26 21:30S 36°50' E 174°47'0 0.0
2014-Sep-26 20:30S 36°50' E 174°47'0 0.2
2014-Sep-26 19:33S 36°50' E 174°47'0 0.0
2014-Sep-26 18:33S 36°50' E 174°47'0 0.0
2014-Sep-26 17:33S 36°50' E 174°47'0 0.0
2014-Sep-26 16:33S 36°50' E 174°47'0 0.0
2014-Sep-26 15:33S 36°50' E 174°47'0 0.0
2014-Sep-26 14:33S 36°50' E 174°47'0 0.0
2014-Sep-26 13:33S 36°50' E 174°47'0 0.0
2014-Sep-26 12:33S 36°50' E 174°47'0 0.0
2014-Sep-26 11:33S 36°50' E 174°47'0 0.0
2014-Sep-26 10:32S 36°50' E 174°47'0 0.0
2014-Sep-26 09:33S 36°50' E 174°47'0 0.0
2014-Sep-26 08:33S 36°50' E 174°47'0 0.0
2014-Sep-26 07:33S 36°50' E 174°47'0 0.0
2014-Sep-26 06:33S 36°50' E 174°47'0 0.0
2014-Sep-26 05:33S 36°50' E 174°47'0 0.0
2014-Sep-26 04:33S 36°50' E 174°47'0 0.0
2014-Sep-26 03:33S 36°50' E 174°47'  

Dump ship's entire track history